This is the latest recevied weather packets stored in our database for station/object N5ATR. If no packets are shown the sender has not sent any weather packets the latest 10 day(s).
| Time | Temp. | Humidity | Pressure | Rain* | Wind** | Luminosity | Snow |
|---|---|---|---|---|---|---|---|
| 1788562664 | 26.67° C | 37% | 1021 hPa | 0 mm | - | 136 W/m² | - |
| 1788562358 | 26.67° C | 35% | 1020.8 hPa | 0 mm | - | 148 W/m² | - |
| 1788562057 | 26.67° C | 35% | 1020.7 hPa | 0 mm | - | 157 W/m² | - |
| 1788561753 | 27.22° C | 34% | 1020.8 hPa | 0 mm | - | 161 W/m² | - |
| 1788561452 | 27.22° C | 34% | 1020.7 hPa | 0 mm | - | 181 W/m² | - |
| 1788561147 | 27.78° C | 34% | 1020.7 hPa | 0 mm | - | 186 W/m² | - |
| 1788560842 | 27.78° C | 34% | 1020.7 hPa | 0 mm | - | 230 W/m² | - |
| 1788560538 | 28.33° C | 33% | 1020.8 hPa | 0 mm | - | 408 W/m² | - |
| 1788560263 | 28.33° C | 34% | 1020.7 hPa | 0 mm | - | 429 W/m² | - |
| 1788559933 | 27.78° C | 36% | 1020.9 hPa | 0 mm | - | 444 W/m² | - |
| 1788559627 | 28.33° C | 36% | 1021 hPa | 0 mm | - | 455 W/m² | - |
| 1788559328 | 28.89° C | 36% | 1021 hPa | 0 mm | - | 462 W/m² | - |
| 1788559027 | 28.33° C | 36% | 1020.8 hPa | 0 mm | - | 417 W/m² | - |
| 1788558724 | 28.33° C | 37% | 1021 hPa | 0 mm | - | 444 W/m² | - |
| 1788558441 | 28.33° C | 37% | 1020.9 hPa | 0 mm | - | 408 W/m² | - |
| 1788558114 | 27.78° C | 37% | 1021.2 hPa | 0 mm | - | 529 W/m² | - |
| 1788557812 | 27.78° C | 37% | 1020.9 hPa | 0 mm | - | 235 W/m² | - |
| 1788557509 | 27.22° C | 38% | 1021.2 hPa | 0 mm | - | 330 W/m² | - |
| 1788557203 | 27.22° C | 37% | 1021.2 hPa | 0 mm | - | 400 W/m² | - |
| 1788556898 | 27.22° C | 37% | 1021.2 hPa | 0 mm | - | 436 W/m² | - |
| 1788556626 | 27.78° C | 37% | 1021 hPa | 0 mm | - | 409 W/m² | - |
| 1788556294 | 27.78° C | 35% | 1021.4 hPa | 0 mm | - | 549 W/m² | - |
| 1788555993 | 28.33° C | 35% | 1021.4 hPa | 0 mm | - | 577 W/m² | - |
| 1788555689 | 28.33° C | 36% | 1021.5 hPa | 0 mm | - | 611 W/m² | - |
| 1788555385 | 27.78° C | 37% | 1021.5 hPa | 0 mm | - | 593 W/m² | - |
* Rain latest hour (hover to see other rain measurements)
** Current wind speed in m/s (hover to see current wind gust speed)